Terminal Aerodrome Forecast
Issued by NWS

Home | Current Version | Previous Version | Text Only | Print | Product List | Glossary On
Versions: 1 2 3 4 5 6 7 8 9 10 11 12 13 14 15 16
000
FTUS45 KABQ 311700 RRA
TAFAEG
TAF
KAEG 311744Z 3118/0118 03006KT 5SM -SN BR OVC005
     FM312000 VRB04KT P6SM VCSH OVC015
     FM312200 28007KT P6SM SCT020 OVC030
     FM010200 33006KT P6SM BKN040
     FM010800 32005KT 4SM BR SCT007
      TEMPO 0108/0112 1SM BR BKN005=

USA.gov is the U.S. government's official web portal to all federal, state and local government web resources and services.